Terminal Aerodrome Forecast
Issued by NWS

Home | Current Version | Previous Version | Text Only | Print | Product List | Glossary On
Versions: 1 2 3 4 5 6 7 8 9 10 11 12 13 14 15 16 17 18 19 20 21 22
000
FTUS43 KFGF 301700
TAFDVL
TAF
KDVL 301738Z 3018/0118 13020G28KT P6SM OVC005
      TEMPO 3018/3020 OVC008
     FM302000 12017G26KT P6SM VCSH BKN010
     FM010200 11023G30KT P6SM SHRA OVC019
      AMD LTD TO CLD VIS AND WIND=

USA.gov is the U.S. government's official web portal to all federal, state and local government web resources and services.